Latest Weather Observations for Giles*

IDW60801

Issued at 6:32 am WST Thursday 5 March 2015 (issued every 30 minutes, with the page automatically refreshed every 10 minutes)

About weather observations | Map of weather stations | Latest weather observations for WA | Other Formats
Station Details ID: 013017 Name: GILES METEOROLOGICAL OFFICE Lat: -25.03 Lon: 128.30 Height: 598.0 m
Data from the previous 72 hours. | See also: Recent months at Giles*

* Giles observations are collected in the South Australia time zone, which includes daylight saving in the summer period. Therefore, Rain since 9am value is with respect to South Australia local time.

Date/Time
WST
Temp
°C
App
Temp
°C
Dew
Point
Rel
Hum
%
Delta-T
°C
Wind Press
QNH
hPa
Press
MSL
hPa
Rain
since 9 am
mm
Dir
 
Spd
km/h
Gust
km/h
Spd
kts
Gust
kts
05/06:00am 22.6 17.7 10.1 45 7.0 SE 26 39 14 21 1018.4 1014.3 0.0
05/05:30am 22.0 17.9 10.2 47 6.6 SE 22 33 12 18 1017.9 1013.8 0.0
05/05:00am 22.3 17.5 10.4 47 6.7 SE 26 39 14 21 1017.5 1013.3 0.0
05/04:30am 22.9 17.3 10.3 45 7.1 SSE 30 41 16 22 1017.0 1012.9 0.0
05/03:30am 23.8 18.6 10.4 42 7.6 SE 28 43 15 23 1016.4 1012.3 0.0
05/03:00am 24.2 18.7 10.7 42 7.7 SSE 30 41 16 22 1016.3 1012.2 0.0
05/02:35am 24.4 19.4 11.0 43 7.7 SE 28 46 15 25 1016.2 1012.1 0.0
05/02:30am 24.6 19.2 10.8 42 7.9 SE 30 46 16 25 1016.1 1012.0 0.0
05/02:26am 24.6 19.6 10.8 42 7.9 SE 28 46 15 25 1016.0 1011.8 0.0
05/02:00am 24.9 19.8 10.6 40 8.2 SSE 28 41 15 22 1016.2 1012.1 0.0
05/01:30am 25.1 19.9 10.4 39 8.4 SSE 28 39 15 21 1015.8 1011.6 0.0
05/01:00am 25.6 20.4 10.2 38 8.8 SSE 28 35 15 19 1015.9 1011.7 0.0
05/12:30am 26.2 20.5 9.8 35 9.3 SSE 30 37 16 20 1015.9 1011.7 0.0
05/12:00am 27.8 22.3 9.0 30 10.6 SE 28 39 15 21 1016.0 1011.8 0.0
 
Date/Time
WST
Temp
°C
App
Temp
°C
Dew
Point
Rel
Hum
%
Delta-T
°C
Wind Press
QNH
hPa
Press
MSL
hPa
Rain
since 9 am
mm
Dir
 
Spd
km/h
Gust
km/h
Spd
kts
Gust
kts
04/11:30pm 28.4 22.9 9.0 29 11.0 SE 28 39 15 21 1016.1 1012.0 0.0
04/11:00pm 29.1 22.8 8.8 28 11.5 SE 32 44 17 24 1016.2 1012.1 0.0
04/10:30pm 29.9 24.3 8.8 26 12.0 SE 28 41 15 22 1016.1 1012.0 0.0
04/10:00pm 30.7 24.4 8.8 25 12.5 SE 32 46 17 25 1015.7 1011.5 0.0
04/09:54pm 31.0 24.0 8.5 24 12.8 SE 35 54 19 29 1015.6 1011.4 0.0
04/09:30pm 31.7 25.0 8.3 23 13.3 SSE 33 46 18 25 1015.6 1011.4 0.0
04/09:00pm 32.7 24.7 7.6 21 14.2 SSE 39 52 21 28 1015.2 1011.1 0.0
04/08:52pm 33.1 25.5 7.4 20 14.5 SSE 37 57 20 31 1015.0 1010.9 0.0
04/08:30pm 34.0 27.9 6.7 18 15.3 SSE 28 44 15 24 1014.8 1010.7 0.0
04/08:15pm 33.9 29.7 5.6 17 15.6 SSE 17 46 9 25 1014.6 1010.5 0.0
04/08:00pm 34.5 31.7 6.8 18 15.6 ENE 11 13 6 7 1014.2 1010.0 0.0
04/07:30pm 34.0 31.2 7.1 19 15.2 ENE 11 13 6 7 1013.8 1009.6 0.0
04/06:30pm 35.4 32.7 5.8 16 16.5 E 9 13 5 7 1013.0 1008.8 0.0
04/06:00pm 36.6 33.1 5.4 14 17.4 E 13 19 7 10 1012.5 1008.3 0.0
04/05:30pm 37.8 33.8 4.9 13 18.3 ENE 15 24 8 13 1012.3 1008.1 0.0
04/05:00pm 38.5 33.7 4.7 12 18.8 NE 19 28 10 15 1012.3 1008.1 0.0
04/04:30pm 38.6 34.2 4.6 12 18.9 E 17 28 9 15 1012.2 1008.0 0.0
04/04:00pm 39.0 34.4 3.7 11 19.4 ENE 17 24 9 13 1012.1 1007.9 0.0
04/03:30pm 39.1 34.6 4.3 12 19.3 ENE 17 30 9 16 1012.0 1007.8 0.0
04/03:00pm 39.5 34.5 4.6 12 19.5 NNE 20 28 11 15 1012.2 1008.0 0.0
04/02:30pm 39.1 33.8 5.1 12 19.1 NNE 22 32 12 17 1012.1 1007.9 0.0
04/02:00pm 39.1 34.2 5.1 12 19.1 NE 20 32 11 17 1012.4 1008.2 0.0
04/01:30pm 38.7 33.3 4.5 12 19.0 NNE 22 35 12 19 1012.7 1008.5 0.0
04/01:00pm 37.8 32.8 4.5 13 18.4 NE 20 33 11 18 1013.1 1009.0 0.0
04/12:30pm 37.9 32.6 5.1 13 18.3 NE 22 35 12 19 1013.4 1009.3 0.0
04/12:00pm 38.7 33.2 4.1 12 19.1 ENE 22 39 12 21 1013.8 1009.6 0.0
04/11:30am 36.8 30.1 3.6 12 18.0 ENE 28 41 15 22 1014.1 1009.9 0.0
04/11:00am 36.8 29.7 3.6 12 18.0 NE 30 44 16 24 1014.4 1010.2 0.0
04/10:48am 36.6 29.9 3.5 13 17.9 ENE 28 46 15 25 1014.6 1010.5 0.0
04/10:30am 36.5 29.4 3.3 12 17.9 ENE 30 44 16 24 1014.7 1010.6 0.0
04/10:15am 36.4 29.1 2.2 12 18.1 ENE 30 48 16 26 1014.8 1010.7 0.0
04/10:00am 35.5 28.3 2.8 13 17.4 ENE 30 43 16 23 1015.1 1011.0 0.0
04/09:30am 35.0 27.9 1.1 12 17.5 E 28 41 15 22 1015.2 1011.1 0.0
04/09:00am 34.0 25.5 0.6 12 17.0 ESE 35 46 19 25 1015.2 1011.1 0.0
04/08:30am 32.8 24.1 1.7 14 16.0 E 37 50 20 27 1015.1 1011.0 0.0
04/08:00am 29.9 22.1 4.7 20 13.4 ESE 35 50 19 27 1015.0 1010.9 0.0
04/07:30am 27.9 20.1 6.8 26 11.5 ESE 37 46 20 25 1014.9 1010.8 0.0
04/07:00am 24.9 19.2 9.9 38 8.5 ESE 30 43 16 23 1014.9 1010.8 0.0
04/06:30am 23.4 18.6 11.6 47 6.8 SE 28 39 15 21 1015.1 1011.0 0.0
04/06:00am 22.1 18.7 12.5 54 5.6 ESE 22 30 12 16 1014.6 1010.5 0.0
04/05:30am 21.8 18.0 12.5 55 5.4 ESE 24 32 13 17 1014.2 1010.0 0.0
04/05:00am 21.7 18.9 12.6 56 5.3 SE 19 24 10 13 1014.1 1009.9 0.0
04/04:30am 21.9 19.1 12.7 56 5.4 SE 19 24 10 13 1013.9 1009.7 0.0
04/04:00am 22.0 18.7 12.8 56 5.4 SE 22 30 12 16 1013.5 1009.4 0.0
04/03:30am 22.2 18.9 12.8 55 5.5 SE 22 33 12 18 1013.4 1009.3 0.0
04/03:00am 22.6 18.6 12.9 54 5.7 SE 26 35 14 19 1013.2 1009.1 0.0
04/02:30am 22.4 19.3 13.3 56 5.4 SE 22 26 12 14 1013.3 1009.2 0.0
04/02:00am 22.2 19.1 13.4 57 5.2 SE 22 30 12 16 1013.4 1009.3 0.0
04/01:30am 22.5 19.5 13.6 57 5.3 SE 22 30 12 16 1013.5 1009.4 0.0
04/01:00am 22.8 19.4 13.8 57 5.4 SSE 24 33 13 18 1013.6 1009.5 0.0
04/12:30am 23.5 20.4 13.4 53 6.0 SSE 22 32 12 17 1014.3 1010.1 0.0
04/12:00am 24.3 20.3 13.0 49 6.7 SSE 26 35 14 19 1014.4 1010.2 0.0
 
Date/Time
WST
Temp
°C
App
Temp
°C
Dew
Point
Rel
Hum
%
Delta-T
°C
Wind Press
QNH
hPa
Press
MSL
hPa
Rain
since 9 am
mm
Dir
 
Spd
km/h
Gust
km/h
Spd
kts
Gust
kts
03/11:30pm 25.1 21.4 12.6 45 7.4 SSE 24 33 13 18 1014.8 1010.7 0.0
03/11:00pm 26.0 23.2 11.4 40 8.5 SSE 17 28 9 15 1015.0 1010.9 0.0
03/10:30pm 26.4 23.2 11.8 40 8.6 SE 20 26 11 14 1015.2 1011.1 0.0
03/10:00pm 26.3 23.8 12.3 41 8.3 SSE 17 24 9 13 1015.2 1011.1 0.0
03/09:30pm 26.7 23.8 12.2 40 8.6 SSE 19 26 10 14 1015.3 1011.2 0.0
03/09:00pm 27.3 23.3 11.9 38 9.1 SSE 24 33 13 18 1015.0 1010.9 0.0
03/08:30pm 28.5 24.3 11.1 34 10.2 SSE 24 41 13 22 1014.6 1010.5 0.0
03/08:00pm 29.5 25.1 10.5 30 11.1 S 24 39 13 21 1014.4 1010.2 0.0
03/07:30pm 30.8 25.6 7.3 23 13.1 S 24 37 13 20 1013.8 1009.6 0.0
03/07:00pm 31.5 25.8 6.9 21 13.7 S 26 35 14 19 1013.0 1008.8 0.0
03/06:30pm 32.0 26.0 6.9 21 14.0 S 28 37 15 20 1012.5 1008.3 0.0
03/06:00pm 33.5 27.7 6.4 18 15.1 S 26 39 14 21 1012.1 1007.9 0.0
03/05:30pm 34.7 29.4 8.4 20 15.2 SSE 26 35 14 19 1011.7 1007.6 0.0
03/05:00pm 36.2 31.5 7.8 17 16.4 SSE 22 30 12 16 1011.4 1007.2 0.0
03/04:30pm 37.1 33.6 8.6 17 16.7 SSE 17 24 9 13 1011.3 1007.1 0.0
03/04:00pm 36.6 32.3 7.9 17 16.6 S 20 28 11 15 1011.2 1007.0 0.0
03/03:30pm 37.3 33.1 8.1 17 17.0 SSE 20 32 11 17 1011.1 1006.9 0.0
03/03:00pm 37.4 35.1 8.9 17 16.8 SE 11 17 6 9 1011.2 1007.0 0.0
03/02:30pm 36.3 33.6 8.8 18 16.1 S 13 22 7 12 1011.3 1007.1 0.0
03/02:00pm 36.2 32.3 8.6 18 16.1 SSE 19 28 10 15 1011.6 1007.5 0.0
03/01:30pm 35.8 33.0 8.7 19 15.8 SSE 13 24 7 13 1012.1 1007.9 0.0
03/01:00pm 35.6 32.1 8.9 19 15.6 SE 17 22 9 12 1012.3 1008.1 0.0
03/12:30pm 35.2 32.2 9.1 20 15.3 SE 15 30 8 16 1012.5 1008.3 0.0
03/12:00pm 33.7 30.7 9.4 22 14.2 SE 15 22 8 12 1012.8 1008.6 0.0
03/11:30am 32.3 28.6 9.4 24 13.3 ESE 19 28 10 15 1013.1 1009.0 0.0
03/11:00am 31.4 27.5 9.5 25 12.7 SE 20 26 11 14 1013.3 1009.2 0.0
03/10:30am 30.2 26.7 10.3 29 11.6 SE 19 24 10 13 1013.9 1009.7 0.0
03/10:00am 29.0 25.9 10.4 31 10.8 ESE 17 24 9 13 1014.3 1010.1 0.0
03/09:30am 27.6 24.4 11.4 36 9.5 SE 19 26 10 14 1014.5 1010.3 0.0
03/09:00am 26.6 23.4 11.1 38 9.0 SE 19 28 10 15 1014.8 1010.7 0.0
03/08:30am 25.6 21.7 10.9 39 8.5 SE 22 30 12 16 1014.7 1010.6 0.0
03/08:00am 24.9 20.9 10.3 39 8.3 SE 22 32 12 17 1014.6 1010.5 0.0
03/07:30am 23.8 20.1 10.2 42 7.7 SE 20 26 11 14 1014.4 1010.2 0.0
03/07:00am 23.4 19.0 10.5 44 7.3 SE 24 32 13 17 1014.3 1010.1 0.0
03/06:30am 23.2 20.8 12.7 51 6.2 SSE 17 24 9 13 1014.3 1010.1 0.0
03/06:00am 22.5 21.4 14.4 60 4.9 ESE 13 15 7 8 1014.2 1010.0 0.0
03/05:30am 22.1 21.9 14.7 63 4.5 SE 9 15 5 8 1014.1 1009.9 0.0
03/05:00am 22.0 22.9 16.0 68 3.7 S 6 9 3 5 1014.1 1009.9 0.0
03/04:30am 21.8 22.7 16.1 70 3.5 E 6 9 3 5 1014.0 1009.8 0.0
03/04:00am 22.0 22.7 16.2 69 3.6 SE 7 13 4 7 1013.5 1009.4 0.0
03/03:30am 21.9 22.0 16.4 71 3.4 ESE 11 17 6 9 1013.2 1009.1 0.0
03/03:00am 22.4 22.1 15.4 64 4.3 SSE 11 15 6 8 1012.9 1008.7 0.0
03/02:30am 22.2 20.7 15.3 65 4.2 SSE 17 20 9 11 1012.9 1008.7 0.0
03/02:00am 22.6 20.7 15.8 65 4.2 SE 20 28 11 15 1013.0 1008.8 0.0
03/01:30am 24.7 22.8 14.1 51 6.4 SE 17 20 9 11 1013.6 1009.5 0.0
03/01:00am 25.4 24.2 14.0 49 6.9 SSE 13 19 7 10 1013.0 1008.8 0.0
03/12:30am 25.7 23.7 13.8 47 7.2 S 17 24 9 13 1013.0 1008.8 0.0
03/12:00am 25.8 23.4 13.7 47 7.3 SSE 19 24 10 13 1013.3 1009.2 0.0
 
Date/Time
WST
Temp
°C
App
Temp
°C
Dew
Point
Rel
Hum
%
Delta-T
°C
Wind Press
QNH
hPa
Press
MSL
hPa
Rain
since 9 am
mm
Dir
 
Spd
km/h
Gust
km/h
Spd
kts
Gust
kts
02/11:30pm 26.3 24.1 13.4 45 7.8 SSE 17 20 9 11 1013.5 1009.4 0.0
02/11:00pm 26.3 23.6 12.9 43 8.0 SSE 19 26 10 14 1012.9 1008.7 0.0
02/10:30pm 26.6 22.9 12.7 42 8.3 SSE 24 37 13 20 1012.3 1008.1 0.0
02/10:00pm 27.3 23.6 12.8 40 8.7 SSE 24 35 13 19 1012.5 1008.3 0.0
02/09:30pm 27.9 24.7 13.2 40 8.9 S 22 32 12 17 1012.8 1008.6 0.0
02/09:00pm 28.6 26.0 15.0 43 8.5 S 22 35 12 19 1012.7 1008.5 0.0
02/08:30pm 28.5 28.6 17.5 51 7.1 S 13 19 7 10 1012.6 1008.4 0.0
02/08:00pm 28.4 27.8 17.6 52 7.0 S 17 24 9 13 1012.0 1007.8 0.0
02/07:30pm 28.8 27.9 16.8 48 7.7 S 17 30 9 16 1011.7 1007.6 0.0
02/07:00pm 28.8 27.2 16.4 47 7.9 S 20 32 11 17 1011.3 1007.1 0.0
02/06:30pm 29.1 27.4 17.2 48 7.7 S 22 32 12 17 1010.7 1006.5 0.0
02/06:00pm 28.6 26.7 18.6 54 6.6 SSW 26 39 14 21 1009.9 1005.7 0.0
02/05:30pm 30.0 27.0 17.7 47 8.0 SSW 30 41 16 22 1009.1 1004.9 0.0
02/05:18pm 31.3 29.9 16.6 41 9.5 SW 19 43 10 23 1008.7 1004.5 0.0
02/05:00pm 34.5 34.1 15.1 31 12.4 W 11 15 6 8 1007.9 1003.7 0.0
02/04:30pm 34.7 33.4 14.7 30 12.7 WNW 15 22 8 12 1007.8 1003.6 0.0
02/04:00pm 34.6 32.0 15.0 31 12.5 NW 22 30 12 16 1007.5 1003.3 0.0
02/03:30pm 35.5 32.2 14.1 27 13.5 WNW 24 33 13 18 1007.3 1003.1 0.0
02/03:00pm 37.5 34.4 10.3 19 16.4 N 17 33 9 18 1007.2 1003.0 0.0
02/02:30pm 37.0 32.3 9.4 18 16.3 N 24 33 13 18 1007.5 1003.3 0.0
02/02:00pm 37.8 32.6 8.9 17 17.1 N 26 39 14 21 1007.4 1003.2 0.0
02/01:30pm 37.7 31.3 8.4 17 17.1 NNE 32 43 17 23 1007.5 1003.3 0.0
02/01:00pm 38.4 33.1 8.5 16 17.6 NNW 26 39 14 21 1007.9 1003.7 0.0
02/12:30pm 38.5 32.8 8.4 16 17.7 NNE 28 41 15 22 1008.6 1004.4 0.0
02/12:00pm 37.1 31.2 8.9 18 16.6 N 30 43 16 23 1009.2 1005.0 0.0
02/11:34am 37.7 32.2 9.2 17 16.9 N 28 46 15 25 1009.6 1005.4 0.0
02/11:30am 37.0 31.2 9.6 19 16.3 N 30 46 16 25 1009.7 1005.5 0.0
02/11:02am 36.0 29.6 9.2 19 15.8 N 33 52 18 28 1009.9 1005.7 0.0
02/11:00am 37.1 30.3 9.2 18 16.5 N 35 52 19 28 1010.0 1005.9 0.0
02/10:56am 36.5 29.9 8.7 18 16.3 N 33 52 18 28 1009.9 1005.7 0.0
02/10:30am 35.6 28.4 9.0 19 15.6 N 37 50 20 27 1010.2 1006.0 0.0
02/10:00am 34.9 28.0 8.8 20 15.2 N 35 59 19 32 1010.6 1006.4 0.0
02/09:51am 35.0 27.6 8.4 19 15.4 NNE 37 59 20 32 1010.6 1006.4 0.0
02/09:30am 34.6 27.9 9.7 21 14.7 NNE 35 52 19 28 1010.7 1006.5 0.0
02/09:02am 33.1 26.8 9.7 23 13.7 NNE 33 52 18 28 1010.8 1006.6 0.0
02/09:00am 33.3 27.1 10.1 24 13.7 NNE 33 46 18 25 1010.8 1006.6 0.0
02/08:42am 33.1 25.7 9.7 23 13.7 NNE 39 57 21 31 1010.7 1006.5 0.0
02/08:30am 33.1 25.7 9.7 23 13.7 NNE 39 52 21 28 1010.6 1006.4 0.0
02/08:00am 32.7 26.4 9.6 24 13.5 NNE 33 50 18 27 1010.5 1006.3 0.0
02/07:52am 32.8 26.7 9.8 24 13.5 NNE 32 50 17 27 1010.6 1006.4 0.0
02/07:30am 32.1 26.5 10.1 25 12.9 NNE 30 44 16 24 1010.5 1006.3 0.0
02/07:00am 31.5 27.5 10.4 27 12.4 NE 22 32 12 17 1010.2 1006.0 0.0
02/06:30am 30.7 26.8 10.7 29 11.8 NE 22 35 12 19 1009.7 1005.5 0.2
02/06:00am 29.8 25.3 10.2 29 11.4 ENE 24 37 13 20 1009.1 1004.9 0.2
02/05:30am 28.9 25.5 10.6 32 10.7 ENE 19 28 10 15 1009.0 1004.8 0.2
02/05:00am 29.0 24.6 10.5 31 10.8 ENE 24 39 13 21 1008.8 1004.6 0.2
02/04:30am 29.0 25.4 10.5 31 10.8 ENE 20 35 11 19 1008.7 1004.5 0.2

Other Formats:

Comma delimited format used in spreadsheet applications
http://www.bom.gov.au/fwo/IDW60801/IDW60801.94461.axf

JavaScript Object Notation format (JSON) in row-major order
http://www.bom.gov.au/fwo/IDW60801/IDW60801.94461.json